createdAt,value
2019-04-03T00:01:04.040Z,100443.55
2019-04-03T00:03:34.162Z,100436.83
2019-04-03T00:06:05.592Z,100437.41
2019-04-03T00:08:36.650Z,100442.81
2019-04-03T00:11:08.569Z,100446.72
2019-04-03T00:13:37.629Z,100442.55
2019-04-03T00:16:07.075Z,100440.57
2019-04-03T00:18:36.488Z,100436.30
2019-04-03T00:21:05.966Z,100436.48
2019-04-03T00:23:35.429Z,100435.10
2019-04-03T00:26:05.236Z,100435.75
2019-04-03T00:28:34.648Z,100428.95
2019-04-03T00:31:04.094Z,100433.31
2019-04-03T00:33:33.503Z,100427.25
2019-04-03T00:36:02.951Z,100431.82
2019-04-03T00:38:32.366Z,100433.03
2019-04-03T00:41:01.805Z,100435.92
2019-04-03T00:43:31.263Z,100429.97
2019-04-03T00:46:00.700Z,100429.59
2019-04-03T00:48:30.116Z,100432.20
2019-04-03T00:50:59.657Z,100426.41
2019-04-03T00:53:29.072Z,100428.38
2019-04-03T00:55:59.159Z,100428.84
2019-04-03T00:58:41.444Z,100429.02
2019-04-03T01:01:11.645Z,100430.52
2019-04-03T01:03:41.402Z,100422.13
2019-04-03T01:06:11.218Z,100418.11
2019-04-03T01:08:40.624Z,100421.19
2019-04-03T01:11:10.101Z,100421.02
2019-04-03T01:13:40.012Z,100420.88
2019-04-03T01:16:09.757Z,100405.73
2019-04-03T01:18:39.186Z,100407.84
2019-04-03T01:21:08.683Z,100400.70
2019-04-03T01:23:38.240Z,100398.28
2019-04-03T01:26:09.301Z,100402.00
2019-04-03T01:28:41.355Z,100393.98
2019-04-03T01:31:10.062Z,100397.16
2019-04-03T01:33:39.533Z,100396.95
2019-04-03T01:36:08.938Z,100397.83
2019-04-03T01:38:38.884Z,100392.06
2019-04-03T01:41:08.309Z,100394.84
2019-04-03T01:43:38.216Z,100388.44
2019-04-03T01:46:07.629Z,100382.81
2019-04-03T01:48:37.065Z,100381.44
2019-04-03T01:51:06.482Z,100383.77
2019-04-03T01:53:35.920Z,100381.62
2019-04-03T01:56:05.338Z,100386.27
2019-04-03T01:58:36.522Z,100390.17
2019-04-03T02:01:07.592Z,100386.73
2019-04-03T02:03:37.174Z,100383.06
2019-04-03T02:06:06.545Z,100380.84
2019-04-03T02:08:35.994Z,100378.24
2019-04-03T02:11:05.683Z,100378.63
2019-04-03T02:13:35.230Z,100374.97
2019-04-03T02:16:04.790Z,100372.37
2019-04-03T02:18:34.184Z,100364.48
2019-04-03T02:21:05.169Z,100362.41
2019-04-03T02:23:34.641Z,100367.55
2019-04-03T02:26:04.230Z,100366.42
2019-04-03T02:28:34.916Z,100364.27
2019-04-03T02:31:04.765Z,100359.70
2019-04-03T02:33:34.213Z,100361.63
2019-04-03T02:36:03.643Z,100358.86
2019-04-03T02:38:33.156Z,100354.84
2019-04-03T02:41:03.971Z,100361.63
2019-04-03T02:43:34.173Z,100359.59
2019-04-03T02:46:03.626Z,100359.03
2019-04-03T02:48:37.351Z,100356.42
2019-04-03T02:51:04.297Z,100355.13
2019-04-03T02:53:33.761Z,100351.47
2019-04-03T02:56:03.257Z,100354.91
2019-04-03T02:58:32.695Z,100355.86
2019-04-03T03:01:05.331Z,100351.74
2019-04-03T03:03:33.599Z,100354.34
2019-04-03T03:06:02.978Z,100353.33
2019-04-03T03:08:32.431Z,100348.51
2019-04-03T03:11:02.921Z,100349.14
2019-04-03T03:13:34.614Z,100357.69
2019-04-03T03:16:04.177Z,100353.78
2019-04-03T03:18:33.629Z,100353.35
2019-04-03T03:21:03.055Z,100342.77
2019-04-03T03:23:32.530Z,100345.55
2019-04-03T03:26:04.292Z,100346.38
2019-04-03T03:28:33.074Z,100344.42
2019-04-03T03:31:05.245Z,100341.42
2019-04-03T03:33:37.449Z,100340.86
2019-04-03T03:36:05.465Z,100338.98
2019-04-03T03:38:38.203Z,100343.33
2019-04-03T03:41:06.237Z,100340.62
2019-04-03T03:43:38.215Z,100341.20
2019-04-03T03:46:06.801Z,100341.82
2019-04-03T03:48:36.387Z,100342.26
2019-04-03T03:51:05.846Z,100339.60
2019-04-03T03:53:35.560Z,100340.78
2019-04-03T03:56:05.247Z,100335.72
2019-04-03T03:58:34.744Z,100332.95
2019-04-03T04:01:04.211Z,100328.66
2019-04-03T04:03:33.606Z,100331.66
2019-04-03T04:06:03.062Z,100329.80
2019-04-03T04:08:32.787Z,100330.19
2019-04-03T04:11:02.712Z,100323.46
2019-04-03T04:13:32.480Z,100323.24
2019-04-03T04:16:03.872Z,100331.20
2019-04-03T04:18:33.182Z,100328.77
2019-04-03T04:21:02.902Z,100328.34
2019-04-03T04:23:32.320Z,100328.77
2019-04-03T04:26:02.278Z,100333.91
2019-04-03T04:28:31.877Z,100332.55
2019-04-03T04:31:01.327Z,100328.41
2019-04-03T04:33:30.845Z,100333.38
2019-04-03T04:36:00.395Z,100333.77
2019-04-03T04:38:29.815Z,100335.46
2019-04-03T04:41:01.287Z,100335.07
2019-04-03T04:43:30.486Z,100331.88
2019-04-03T04:45:59.942Z,100332.80
2019-04-03T04:48:29.365Z,100327.07
2019-04-03T04:50:58.816Z,100331.66
2019-04-03T04:53:29.835Z,100337.76
2019-04-03T04:55:59.388Z,100340.75
2019-04-03T04:58:28.800Z,100346.38
2019-04-03T05:00:58.358Z,100341.56
2019-04-03T05:03:27.886Z,100336.38
2019-04-03T05:05:58.570Z,100335.52
2019-04-03T05:08:33.637Z,100336.05
2019-04-03T05:11:03.391Z,100334.13
2019-04-03T05:13:32.823Z,100339.69
2019-04-03T05:16:02.686Z,100332.25
2019-04-03T05:18:32.256Z,100344.01
2019-04-03T05:21:01.905Z,100341.08
2019-04-03T05:23:31.339Z,100326.97
2019-04-03T05:26:01.854Z,100328.72
2019-04-03T05:28:33.986Z,100329.03
2019-04-03T05:31:02.763Z,100327.06
2019-04-03T05:33:32.184Z,100331.20
2019-04-03T05:36:01.638Z,100330.05
2019-04-03T05:38:31.061Z,100334.11
2019-04-03T05:41:00.562Z,100328.27
2019-04-03T05:43:30.854Z,100327.44
2019-04-03T05:46:01.032Z,100323.84
2019-04-03T05:48:30.655Z,100320.70
2019-04-03T05:51:00.109Z,100326.13
2019-04-03T05:53:29.538Z,100317.78
2019-04-03T05:55:58.986Z,100318.34
2019-04-03T05:58:28.494Z,100318.71
2019-04-03T06:01:05.421Z,100318.80
2019-04-03T06:03:39.173Z,100321.14
2019-04-03T06:06:00.356Z,100321.39
2019-04-03T06:08:29.778Z,100321.48
2019-04-03T06:10:59.407Z,100322.50
2019-04-03T06:13:28.834Z,100319.50
2019-04-03T06:15:58.381Z,100318.01
2019-04-03T06:18:30.913Z,100312.56
2019-04-03T06:20:59.070Z,100310.03
2019-04-03T06:23:28.694Z,100307.41
2019-04-03T06:26:01.021Z,100309.70
2019-04-03T06:28:29.255Z,100304.17
2019-04-03T06:30:58.700Z,100302.91
2019-04-03T06:33:31.305Z,100293.73
2019-04-03T06:35:59.271Z,100293.88
2019-04-03T06:38:29.051Z,100288.45
2019-04-03T06:40:58.594Z,100282.68
2019-04-03T06:43:29.942Z,100282.20
2019-04-03T06:45:59.134Z,100284.11
2019-04-03T06:48:28.565Z,100275.86
2019-04-03T06:50:58.219Z,100281.00
2019-04-03T06:53:28.758Z,100281.09
2019-04-03T06:55:58.562Z,100281.55
2019-04-03T06:58:37.266Z,100280.41
2019-04-03T07:00:59.147Z,100274.45
2019-04-03T07:03:28.610Z,100275.86
2019-04-03T07:05:58.048Z,100271.71
2019-04-03T07:08:32.598Z,100270.96
2019-04-03T07:10:58.636Z,100268.99
2019-04-03T07:13:29.734Z,100265.71
2019-04-03T07:15:59.414Z,100263.28
2019-04-03T07:18:29.169Z,100265.48
2019-04-03T07:20:58.552Z,100269.20
2019-04-03T07:23:29.918Z,100258.38
2019-04-03T07:25:59.622Z,100255.85
2019-04-03T07:28:30.596Z,100254.55
2019-04-03T07:31:00.380Z,100250.16
2019-04-03T07:33:29.847Z,100251.38
2019-04-03T07:35:59.282Z,100246.83
2019-04-03T07:38:28.929Z,100252.92
2019-04-03T07:40:58.326Z,100243.86
2019-04-03T07:43:28.231Z,100240.16
2019-04-03T07:45:57.688Z,100245.64
2019-04-03T07:48:27.323Z,100246.66
2019-04-03T07:50:56.740Z,100249.87
2019-04-03T07:53:26.190Z,100241.45
2019-04-03T07:55:55.983Z,100240.83
2019-04-03T07:58:25.825Z,100241.70
2019-04-03T08:00:55.486Z,100242.76
2019-04-03T08:03:24.900Z,100241.92
2019-04-03T08:05:56.265Z,100240.14
2019-04-03T08:08:25.768Z,100239.59
2019-04-03T08:10:55.287Z,100241.25
2019-04-03T08:13:24.743Z,100244.37
2019-04-03T08:15:54.157Z,100242.70
2019-04-03T08:18:23.608Z,100237.66
2019-04-03T08:20:53.358Z,100241.61
2019-04-03T08:23:22.852Z,100239.03
2019-04-03T08:25:54.264Z,100241.22
2019-04-03T08:28:26.012Z,100232.78
2019-04-03T08:30:54.642Z,100235.58
2019-04-03T08:33:27.332Z,100238.16
2019-04-03T08:35:55.303Z,100241.00
2019-04-03T08:38:24.983Z,100232.41
2019-04-03T08:40:54.850Z,100232.36
2019-04-03T08:43:24.459Z,100227.18
2019-04-03T08:45:54.027Z,100231.58
2019-04-03T08:48:23.523Z,100225.39
2019-04-03T08:50:52.941Z,100227.16
2019-04-03T08:53:22.389Z,100221.11
2019-04-03T08:55:51.942Z,100218.07
2019-04-03T08:58:22.135Z,100213.28
2019-04-03T09:00:52.619Z,100216.54
2019-04-03T09:03:22.037Z,100207.26
2019-04-03T09:05:52.354Z,100202.39
2019-04-03T09:08:22.814Z,100198.31
2019-04-03T09:10:52.509Z,100206.12
2019-04-03T09:13:23.242Z,100199.19
2019-04-03T09:15:53.298Z,100197.95
2019-04-03T09:18:22.817Z,100194.56
2019-04-03T09:20:52.373Z,100188.36
2019-04-03T09:23:24.634Z,100183.86
2019-04-03T09:25:52.968Z,100183.14
2019-04-03T09:28:22.862Z,100173.05
2019-04-03T09:30:54.099Z,100170.86
2019-04-03T09:33:25.527Z,100160.73
2019-04-03T09:35:54.815Z,100156.84
2019-04-03T09:38:24.239Z,100150.53
2019-04-03T09:40:53.874Z,100151.19
2019-04-03T09:43:23.291Z,100144.41
2019-04-03T09:45:52.842Z,100143.59
2019-04-03T09:48:22.950Z,100140.30
2019-04-03T09:50:52.399Z,100142.67
2019-04-03T09:53:21.830Z,100138.91
2019-04-03T09:55:51.278Z,100140.59
2019-04-03T09:58:20.702Z,100130.50
2019-04-03T10:00:50.153Z,100131.82
2019-04-03T10:03:22.486Z,100127.84
2019-04-03T10:05:50.829Z,100109.61
2019-04-03T10:08:20.211Z,100120.84
2019-04-03T10:10:50.040Z,100121.86
2019-04-03T10:13:19.562Z,100114.89
2019-04-03T10:15:49.238Z,100107.66
2019-04-03T10:18:22.001Z,100105.95
2019-04-03T10:20:50.868Z,100103.81
2019-04-03T10:23:20.303Z,100105.25
2019-04-03T10:25:52.530Z,100099.34
2019-04-03T10:28:21.115Z,100091.60
2019-04-03T10:30:52.825Z,100096.86
2019-04-03T10:33:21.635Z,100085.84
2019-04-03T10:35:51.486Z,100086.41
2019-04-03T10:38:20.898Z,100074.90
2019-04-03T10:40:50.452Z,100072.96
2019-04-03T10:43:19.917Z,100066.55
2019-04-03T10:45:49.459Z,100066.16
2019-04-03T10:48:19.103Z,100061.45
2019-04-03T10:50:48.678Z,100053.78
2019-04-03T10:53:20.031Z,100053.41
2019-04-03T10:55:49.261Z,100046.71
2019-04-03T10:58:18.900Z,100045.00
2019-04-03T11:00:49.428Z,100044.64
2019-04-03T11:03:20.620Z,100046.19
2019-04-03T11:05:50.029Z,100048.86
2019-04-03T11:08:19.483Z,100052.81
2019-04-03T11:10:49.358Z,100043.28
2019-04-03T11:13:19.137Z,100037.05
2019-04-03T11:15:48.952Z,100039.19
2019-04-03T11:18:18.882Z,100030.36
2019-04-03T11:20:49.872Z,100030.30
2019-04-03T11:23:21.630Z,100031.32
2019-04-03T11:25:50.420Z,100032.05
2019-04-03T11:28:19.935Z,100020.77
2019-04-03T11:30:52.120Z,100021.31
2019-04-03T11:33:20.518Z,100019.27
2019-04-03T11:35:52.290Z,100024.34
2019-04-03T11:38:27.189Z,100014.69
2019-04-03T11:40:52.768Z,100012.69
2019-04-03T11:43:22.266Z,100014.58
2019-04-03T11:45:51.748Z,100025.77
2019-04-03T11:48:21.274Z,100027.13
2019-04-03T11:50:51.164Z,100023.94
2019-04-03T11:53:20.617Z,100019.87
2019-04-03T11:55:50.076Z,100019.56
2019-04-03T11:58:21.106Z,100010.56
2019-04-03T12:00:52.632Z,100007.98
2019-04-03T12:03:22.154Z,100003.18
2019-04-03T12:05:51.611Z,99999.84
2019-04-03T12:08:21.183Z,99994.61
2019-04-03T12:10:50.676Z,99984.02
2019-04-03T12:13:21.805Z,99984.42
2019-04-03T12:15:53.205Z,99978.56
2019-04-03T12:18:26.200Z,99993.92
2019-04-03T12:20:55.777Z,99981.42
2019-04-03T12:23:26.911Z,99983.77
2019-04-03T12:25:56.976Z,99972.33
2019-04-03T12:28:26.455Z,99978.94
2019-04-03T12:30:57.080Z,99976.02
2019-04-03T12:33:26.897Z,99972.38
2019-04-03T12:35:56.529Z,99973.98
2019-04-03T12:38:26.173Z,99976.86
2019-04-03T12:40:55.871Z,99955.75
2019-04-03T12:43:25.321Z,99952.14
2019-04-03T12:45:57.387Z,99975.17
2019-04-03T12:48:27.894Z,99958.52
2019-04-03T12:50:59.717Z,99952.05
2019-04-03T12:53:28.460Z,99958.33
2019-04-03T12:55:58.434Z,99940.94
2019-04-03T12:58:28.203Z,99952.12
2019-04-03T13:00:58.104Z,99949.77
2019-04-03T13:03:27.883Z,99944.33
2019-04-03T13:05:58.745Z,99944.11
2019-04-03T13:08:28.357Z,99935.77
2019-04-03T13:10:58.132Z,99933.41
2019-04-03T13:13:28.827Z,99947.30
2019-04-03T13:15:58.331Z,99940.63
2019-04-03T13:18:27.918Z,99935.78
2019-04-03T13:20:57.349Z,99941.98
2019-04-03T13:23:26.832Z,99945.11
2019-04-03T13:25:56.344Z,99947.26
2019-04-03T13:28:25.929Z,99946.98
2019-04-03T13:30:55.293Z,99947.98
2019-04-03T13:33:24.846Z,99947.52
2019-04-03T13:35:54.255Z,99945.70
2019-04-03T13:38:23.915Z,99948.47
2019-04-03T13:40:53.405Z,99941.44
2019-04-03T13:43:22.858Z,99930.02
2019-04-03T13:45:52.345Z,99941.20
2019-04-03T13:48:21.832Z,99934.58
2019-04-03T13:50:53.541Z,99931.13
2019-04-03T13:53:25.086Z,99921.61
2019-04-03T13:55:53.485Z,99907.13
2019-04-03T13:58:23.321Z,99915.41
2019-04-03T14:01:01.382Z,99924.14
2019-04-03T14:03:24.671Z,99918.13
2019-04-03T14:05:54.414Z,99907.98
2019-04-03T14:08:23.901Z,99904.61
2019-04-03T14:10:53.308Z,99906.08
2019-04-03T14:13:22.846Z,99906.78
2019-04-03T14:15:54.756Z,99906.18
2019-04-03T14:18:23.789Z,99900.34
2019-04-03T14:20:54.023Z,99902.03
2019-04-03T14:23:24.797Z,99901.13
2019-04-03T14:26:04.793Z,99894.06
2019-04-03T14:28:25.548Z,99906.80
2019-04-03T14:30:55.071Z,99905.41
2019-04-03T14:33:25.544Z,99900.75
2019-04-03T14:35:55.719Z,99897.04
2019-04-03T14:38:27.630Z,99892.88
2019-04-03T14:40:56.308Z,99893.79
2019-04-03T14:43:25.715Z,99893.47
2019-04-03T14:45:55.170Z,99887.77
2019-04-03T14:48:26.194Z,99887.11
2019-04-03T14:50:55.728Z,99888.05
2019-04-03T14:53:25.837Z,99877.02
2019-04-03T14:55:55.347Z,99886.53
2019-04-03T14:58:26.851Z,99887.77
2019-04-03T15:00:56.428Z,99866.04
2019-04-03T15:03:27.820Z,99877.34
2019-04-03T15:05:57.028Z,99869.02
2019-04-03T15:08:26.456Z,99871.09
2019-04-03T15:10:55.905Z,99872.25
2019-04-03T15:13:25.438Z,99872.17
2019-04-03T15:15:57.205Z,99871.77
2019-04-03T15:18:26.420Z,99871.47
2019-04-03T15:20:55.966Z,99866.22
2019-04-03T15:23:25.384Z,99875.77
2019-04-03T15:25:54.934Z,99864.53
2019-04-03T15:28:24.452Z,99869.84
2019-04-03T15:30:53.892Z,99857.41
2019-04-03T15:33:24.759Z,99866.48
2019-04-03T15:35:54.442Z,99861.84
2019-04-03T15:38:23.861Z,99859.13
2019-04-03T15:40:53.351Z,99868.89
2019-04-03T15:43:22.732Z,99855.72
2019-04-03T15:45:52.315Z,99854.39
2019-04-03T15:48:22.853Z,99854.34
2019-04-03T15:50:53.294Z,99843.94
2019-04-03T15:53:24.219Z,99846.27
2019-04-03T15:55:53.848Z,99850.13
2019-04-03T15:58:25.694Z,99849.30
2019-04-03T16:00:54.399Z,99852.98
2019-04-03T16:03:24.019Z,99852.09
2019-04-03T16:05:53.466Z,99853.30
2019-04-03T16:08:23.313Z,99851.19
2019-04-03T16:10:54.038Z,99850.27
2019-04-03T16:13:24.308Z,99848.58
2019-04-03T16:15:56.323Z,99852.96
2019-04-03T16:18:25.086Z,99850.70
2019-04-03T16:20:54.979Z,99844.32
2019-04-03T16:23:24.432Z,99845.34
2019-04-03T16:25:53.883Z,99847.88
2019-04-03T16:28:23.329Z,99849.24
2019-04-03T16:30:54.401Z,99841.96
2019-04-03T16:33:24.901Z,99839.82
2019-04-03T16:35:54.667Z,99842.18
2019-04-03T16:38:27.677Z,99837.86
2019-04-03T16:40:55.529Z,99850.59
2019-04-03T16:43:25.034Z,99847.98
2019-04-03T16:45:54.827Z,99838.05
2019-04-03T16:48:24.484Z,99849.61
2019-04-03T16:50:54.437Z,99845.31
2019-04-03T16:53:23.908Z,99845.78
2019-04-03T16:55:53.933Z,99844.77
2019-04-03T16:58:25.255Z,99836.50
2019-04-03T17:00:55.045Z,99837.80
2019-04-03T17:03:26.634Z,99837.57
2019-04-03T17:05:55.621Z,99836.23
2019-04-03T17:08:25.975Z,99833.86
2019-04-03T17:10:56.256Z,99836.79
2019-04-03T17:13:25.679Z,99831.16
2019-04-03T17:15:55.145Z,99830.96
2019-04-03T17:18:24.552Z,99828.98
2019-04-03T17:20:56.339Z,99834.41
2019-04-03T17:23:25.595Z,99828.26
2019-04-03T17:25:55.214Z,99826.07
2019-04-03T17:28:26.423Z,99831.14
2019-04-03T17:30:55.780Z,99832.95
2019-04-03T17:33:25.222Z,99841.28
2019-04-03T17:35:54.741Z,99831.34
2019-04-03T17:38:24.190Z,99840.70
2019-04-03T17:40:53.713Z,99848.94
2019-04-03T17:43:23.164Z,99846.56
2019-04-03T17:45:52.580Z,99844.35
2019-04-03T17:48:22.842Z,99848.44
2019-04-03T17:50:53.146Z,99847.25
2019-04-03T17:53:22.661Z,99852.64
2019-04-03T17:55:52.095Z,99848.80
2019-04-03T17:58:21.654Z,99853.02
2019-04-03T18:00:52.078Z,99850.02
2019-04-03T18:03:21.998Z,99860.02
2019-04-03T18:05:51.426Z,99858.70
2019-04-03T18:08:21.150Z,99856.50
2019-04-03T18:10:50.574Z,99856.62
2019-04-03T18:13:20.022Z,99860.20
2019-04-03T18:15:49.979Z,99849.38
2019-04-03T18:18:19.698Z,99855.49
2019-04-03T18:20:49.117Z,99857.46
2019-04-03T18:23:21.402Z,99861.06
2019-04-03T18:25:50.300Z,99854.41
2019-04-03T18:28:21.035Z,99852.35
2019-04-03T18:30:50.642Z,99857.27
2019-04-03T18:33:20.109Z,99857.19
2019-04-03T18:35:49.921Z,99859.44
2019-04-03T18:38:19.364Z,99858.23
2019-04-03T18:40:50.005Z,99858.55
2019-04-03T18:43:21.645Z,99861.16
2019-04-03T18:45:50.566Z,99859.00
2019-04-03T18:48:20.109Z,99864.95
2019-04-03T18:50:50.016Z,99856.98
2019-04-03T18:53:19.461Z,99854.13
2019-04-03T18:55:48.885Z,99863.19
2019-04-03T18:58:18.325Z,99853.84
2019-04-03T19:00:47.754Z,99857.44
2019-04-03T19:03:17.455Z,99852.81
2019-04-03T19:05:47.279Z,99856.12
2019-04-03T19:08:18.214Z,99855.52
2019-04-03T19:10:47.965Z,99853.39
2019-04-03T19:13:17.493Z,99849.86
2019-04-03T19:15:46.955Z,99853.14
2019-04-03T19:18:19.835Z,99855.23
2019-04-03T19:20:47.699Z,99854.59
2019-04-03T19:23:17.340Z,99860.94
2019-04-03T19:25:46.915Z,99872.08
2019-04-03T19:28:16.482Z,99863.34
2019-04-03T19:30:46.064Z,99869.80
2019-04-03T19:33:16.007Z,99866.63
2019-04-03T19:35:45.448Z,99865.31
2019-04-03T19:38:15.010Z,99862.09
2019-04-03T19:40:44.806Z,99862.02
2019-04-03T19:43:15.403Z,99862.47
2019-04-03T19:45:45.188Z,99864.87
2019-04-03T19:48:14.658Z,99857.30
2019-04-03T19:50:44.077Z,99856.11
2019-04-03T19:53:14.117Z,99854.72
2019-04-03T19:55:43.569Z,99855.84
2019-04-03T19:58:13.130Z,99854.77
2019-04-03T20:00:42.713Z,99860.83
2019-04-03T20:03:14.213Z,99846.09
2019-04-03T20:05:44.038Z,99862.36
2019-04-03T20:08:13.577Z,99857.02
2019-04-03T20:10:43.030Z,99863.47
2019-04-03T20:13:12.450Z,99862.37
2019-04-03T20:15:42.009Z,99858.22
2019-04-03T20:18:11.531Z,99862.80
2019-04-03T20:20:40.997Z,99856.35
2019-04-03T20:23:11.218Z,99863.89
2019-04-03T20:25:40.726Z,99858.59
2019-04-03T20:28:10.401Z,99861.49
2019-04-03T20:30:39.960Z,99863.09
2019-04-03T20:33:11.398Z,99868.22
2019-04-03T20:35:40.529Z,99870.09
2019-04-03T20:38:09.960Z,99866.75
2019-04-03T20:40:39.937Z,99867.30
2019-04-03T20:43:11.828Z,99860.45
2019-04-03T20:45:40.848Z,99869.60
2019-04-03T20:48:10.366Z,99869.13
2019-04-03T20:50:39.813Z,99861.99
2019-04-03T20:53:09.333Z,99865.85
2019-04-03T20:55:38.788Z,99865.09
2019-04-03T20:58:08.410Z,99864.88
2019-04-03T21:00:38.000Z,99865.03
2019-04-03T21:03:07.516Z,99869.25
2019-04-03T21:05:36.969Z,99860.92
2019-04-03T21:08:06.397Z,99859.61
2019-04-03T21:10:35.846Z,99863.34
2019-04-03T21:13:06.820Z,99867.77
2019-04-03T21:15:36.414Z,99868.19
2019-04-03T21:18:05.829Z,99867.35
2019-04-03T21:20:35.501Z,99866.99
2019-04-03T21:23:04.923Z,99860.02
2019-04-03T21:25:35.948Z,99867.27
2019-04-03T21:28:06.014Z,99861.87
2019-04-03T21:30:35.458Z,99864.14
2019-04-03T21:33:04.876Z,99859.03
2019-04-03T21:35:35.153Z,99857.98
2019-04-03T21:38:05.278Z,99852.44
2019-04-03T21:40:34.742Z,99849.96
2019-04-03T21:43:04.169Z,99854.55
2019-04-03T21:45:33.613Z,99854.83
2019-04-03T21:48:03.029Z,99851.06
2019-04-03T21:50:32.487Z,99858.78
2019-04-03T21:53:02.000Z,99860.58
2019-04-03T21:55:34.444Z,99867.55
2019-04-03T21:58:02.753Z,99862.78
2019-04-03T22:01:00.685Z,99869.61
2019-04-03T22:03:30.209Z,99870.23
2019-04-03T22:05:59.667Z,99867.45
2019-04-03T22:08:29.548Z,99869.35
2019-04-03T22:10:59.286Z,99863.20
2019-04-03T22:13:46.604Z,99865.46
2019-04-03T22:16:16.338Z,99866.20
2019-04-03T22:18:45.760Z,99868.14
2019-04-03T22:21:15.307Z,99864.05
2019-04-03T22:23:44.826Z,99864.94
2019-04-03T22:26:14.487Z,99866.77
2019-04-03T22:28:45.891Z,99862.88
2019-04-03T22:31:15.080Z,99854.36
2019-04-03T22:33:44.504Z,99859.39
2019-04-03T22:36:13.948Z,99856.78
2019-04-03T22:38:43.372Z,99866.84
2019-04-03T22:41:12.928Z,99867.42
2019-04-03T22:43:44.146Z,99870.41
2019-04-03T22:46:13.876Z,99871.17
2019-04-03T22:48:43.300Z,99871.77
2019-04-03T22:51:12.849Z,99870.23
2019-04-03T22:53:42.369Z,99865.64
2019-04-03T22:56:11.821Z,99863.35
2019-04-03T22:58:41.349Z,99870.53
2019-04-03T23:01:10.796Z,99864.95
2019-04-03T23:03:40.319Z,99859.71
2019-04-03T23:06:09.862Z,99858.10
2019-04-03T23:08:39.378Z,99859.52
2019-04-03T23:11:08.919Z,99857.80
2019-04-03T23:13:38.536Z,99854.59
2019-04-03T23:16:09.633Z,99855.47
2019-04-03T23:18:39.325Z,99855.80
2019-04-03T23:21:08.844Z,99853.57
2019-04-03T23:23:38.388Z,99852.26
2019-04-03T23:26:07.834Z,99850.47
2019-04-03T23:28:37.452Z,99848.35
2019-04-03T23:31:06.866Z,99844.31
2019-04-03T23:33:36.423Z,99833.83
2019-04-03T23:36:05.941Z,99831.91
2019-04-03T23:38:35.403Z,99833.69
2019-04-03T23:41:06.129Z,99835.50
2019-04-03T23:43:39.358Z,99835.50
2019-04-03T23:46:07.512Z,99838.70
2019-04-03T23:48:36.955Z,99833.47
2019-04-03T23:51:06.469Z,99828.47
2019-04-03T23:53:35.916Z,99832.07
2019-04-03T23:56:05.519Z,99826.24
2019-04-03T23:58:36.576Z,99818.64
